Terminal Aerodrome Forecast
Issued by NWS Upton, NY

Home | Current Version | Previous Version | Text Only | Print | Product List | Glossary On
Versions: 1 2 3 4 5 6 7 8 9 10 11 12 13 14 15 16 17 18 19 20 21 22 23 24 25 26 27 28 29 30 31 32
000
FTUS41 KOKX 302350 CCA
TAFEWR
TAF COR
KEWR 302350Z 3100/0106 20009KT P6SM FEW010 SCT035 BKN150
     FM310100 21005KT P6SM VCSH SCT040 BKN090
      TEMPO 3107/3111 3SM BR
     FM311100 33006KT P6SM SCT040 SCT090 BKN250
     FM312000 15007KT P6SM FEW040 SCT250
     FM010100 VRB05KT P6SM FEW060 SCT250=

USA.gov is the U.S. government's official web portal to all federal, state and local government web resources and services.